sensor_id;sensor_type;location;lat;lon;timestamp;P1;durP1;ratioP1;P2;durP2;ratioP2
30062;SDS011;16889;67.864;24.990;2022-09-28T00:01:06;11.50;;;4.22;;
30062;SDS011;16889;67.864;24.990;2022-09-28T00:05:52;6.80;;;4.40;;
30062;SDS011;16889;67.864;24.990;2022-09-28T00:10:45;11.27;;;4.70;;
30062;SDS011;16889;67.864;24.990;2022-09-28T00:15:40;10.70;;;4.60;;
30062;SDS011;16889;67.864;24.990;2022-09-28T00:20:25;10.55;;;3.83;;
30062;SDS011;16889;67.864;24.990;2022-09-28T00:25:11;7.03;;;3.80;;
30062;SDS011;16889;67.864;24.990;2022-09-28T00:29:57;9.23;;;4.05;;
30062;SDS011;16889;67.864;24.990;2022-09-28T00:34:44;9.23;;;3.90;;
30062;SDS011;16889;67.864;24.990;2022-09-28T00:39:30;6.18;;;3.55;;
30062;SDS011;16889;67.864;24.990;2022-09-28T00:49:13;9.35;;;3.30;;
30062;SDS011;16889;67.864;24.990;2022-09-28T00:54:01;8.07;;;3.72;;
30062;SDS011;16889;67.864;24.990;2022-09-28T00:58:51;5.30;;;3.40;;
30062;SDS011;16889;67.864;24.990;2022-09-28T01:03:38;6.03;;;3.53;;
30062;SDS011;16889;67.864;24.990;2022-09-28T01:08:29;7.38;;;3.83;;
30062;SDS011;16889;67.864;24.990;2022-09-28T01:13:16;6.63;;;3.63;;
30062;SDS011;16889;67.864;24.990;2022-09-28T01:28:03;8.93;;;3.95;;
30062;SDS011;16889;67.864;24.990;2022-09-28T01:32:57;9.32;;;3.70;;
30062;SDS011;16889;67.864;24.990;2022-09-28T01:37:55;7.65;;;3.22;;
30062;SDS011;16889;67.864;24.990;2022-09-28T01:42:53;5.20;;;3.03;;
30062;SDS011;16889;67.864;24.990;2022-09-28T01:47:46;7.05;;;2.72;;
30062;SDS011;16889;67.864;24.990;2022-09-28T01:52:35;5.78;;;2.95;;
30062;SDS011;16889;67.864;24.990;2022-09-28T01:57:32;5.05;;;2.95;;
30062;SDS011;16889;67.864;24.990;2022-09-28T02:02:24;7.63;;;3.00;;
30062;SDS011;16889;67.864;24.990;2022-09-28T02:07:17;8.70;;;3.00;;
30062;SDS011;16889;67.864;24.990;2022-09-28T02:12:10;5.38;;;2.95;;
30062;SDS011;16889;67.864;24.990;2022-09-28T02:17:04;7.30;;;2.75;;
30062;SDS011;16889;67.864;24.990;2022-09-28T02:21:58;6.00;;;2.92;;
30062;SDS011;16889;67.864;24.990;2022-09-28T02:26:49;8.80;;;3.70;;
30062;SDS011;16889;67.864;24.990;2022-09-28T02:31:37;8.85;;;3.25;;
30062;SDS011;16889;67.864;24.990;2022-09-28T02:36:26;10.07;;;3.70;;
30062;SDS011;16889;67.864;24.990;2022-09-28T02:41:35;7.80;;;3.63;;
30062;SDS011;16889;67.864;24.990;2022-09-28T02:46:38;13.68;;;4.07;;
30062;SDS011;16889;67.864;24.990;2022-09-28T03:02:02;7.70;;;3.42;;
30062;SDS011;16889;67.864;24.990;2022-09-28T03:07:15;15.93;;;4.05;;
30062;SDS011;16889;67.864;24.990;2022-09-28T03:12:07;8.05;;;3.70;;
30062;SDS011;16889;67.864;24.990;2022-09-28T03:16:57;7.97;;;4.10;;
30062;SDS011;16889;67.864;24.990;2022-09-28T03:21:43;9.15;;;4.00;;
30062;SDS011;16889;67.864;24.990;2022-09-28T03:26:30;11.45;;;4.00;;
30062;SDS011;16889;67.864;24.990;2022-09-28T03:31:16;8.32;;;4.20;;
30062;SDS011;16889;67.864;24.990;2022-09-28T03:36:02;9.20;;;3.97;;
30062;SDS011;16889;67.864;24.990;2022-09-28T03:40:55;12.15;;;4.57;;
30062;SDS011;16889;67.864;24.990;2022-09-28T03:45:42;10.65;;;5.13;;
30062;SDS011;16889;67.864;24.990;2022-09-28T03:50:35;15.18;;;4.95;;
30062;SDS011;16889;67.864;24.990;2022-09-28T03:55:20;12.75;;;5.95;;
30062;SDS011;16889;67.864;24.990;2022-09-28T04:00:07;15.45;;;6.03;;
30062;SDS011;16889;67.864;24.990;2022-09-28T04:04:53;12.50;;;5.53;;
30062;SDS011;16889;67.864;24.990;2022-09-28T04:09:39;13.10;;;6.03;;
30062;SDS011;16889;67.864;24.990;2022-09-28T04:14:25;17.38;;;5.82;;
30062;SDS011;16889;67.864;24.990;2022-09-28T04:19:11;12.68;;;5.93;;
30062;SDS011;16889;67.864;24.990;2022-09-28T04:23:58;11.40;;;5.78;;
30062;SDS011;16889;67.864;24.990;2022-09-28T04:28:44;15.48;;;6.25;;
30062;SDS011;16889;67.864;24.990;2022-09-28T04:33:49;14.05;;;6.70;;
30062;SDS011;16889;67.864;24.990;2022-09-28T04:38:35;17.00;;;7.40;;
30062;SDS011;16889;67.864;24.990;2022-09-28T04:43:22;16.10;;;7.75;;
30062;SDS011;16889;67.864;24.990;2022-09-28T04:48:07;24.80;;;7.97;;
30062;SDS011;16889;67.864;24.990;2022-09-28T04:52:53;16.38;;;7.38;;
30062;SDS011;16889;67.864;24.990;2022-09-28T04:57:39;20.88;;;8.48;;
30062;SDS011;16889;67.864;24.990;2022-09-28T05:02:25;18.98;;;8.23;;
30062;SDS011;16889;67.864;24.990;2022-09-28T05:07:11;15.77;;;7.68;;
30062;SDS011;16889;67.864;24.990;2022-09-28T05:11:57;19.63;;;8.07;;
30062;SDS011;16889;67.864;24.990;2022-09-28T05:16:43;21.67;;;8.40;;
30062;SDS011;16889;67.864;24.990;2022-09-28T05:21:29;24.77;;;8.50;;
30062;SDS011;16889;67.864;24.990;2022-09-28T05:26:15;16.85;;;7.63;;
30062;SDS011;16889;67.864;24.990;2022-09-28T05:31:02;20.42;;;7.75;;
30062;SDS011;16889;67.864;24.990;2022-09-28T05:35:49;18.13;;;7.80;;
30062;SDS011;16889;67.864;24.990;2022-09-28T05:40:34;17.67;;;7.65;;
30062;SDS011;16889;67.864;24.990;2022-09-28T05:45:23;18.33;;;8.30;;
30062;SDS011;16889;67.864;24.990;2022-09-28T05:50:09;16.80;;;8.13;;
30062;SDS011;16889;67.864;24.990;2022-09-28T05:54:56;18.70;;;7.30;;
30062;SDS011;16889;67.864;24.990;2022-09-28T05:59:41;18.23;;;7.93;;
30062;SDS011;16889;67.864;24.990;2022-09-28T06:04:27;15.52;;;7.13;;
30062;SDS011;16889;67.864;24.990;2022-09-28T06:09:13;18.15;;;7.47;;
30062;SDS011;16889;67.864;24.990;2022-09-28T06:13:59;16.08;;;7.13;;
30062;SDS011;16889;67.864;24.990;2022-09-28T06:18:45;18.33;;;7.82;;
30062;SDS011;16889;67.864;24.990;2022-09-28T06:23:31;19.02;;;8.02;;
30062;SDS011;16889;67.864;24.990;2022-09-28T06:28:17;19.40;;;7.18;;
30062;SDS011;16889;67.864;24.990;2022-09-28T06:33:03;21.02;;;7.45;;
30062;SDS011;16889;67.864;24.990;2022-09-28T06:37:50;14.73;;;7.10;;
30062;SDS011;16889;67.864;24.990;2022-09-28T06:42:39;18.90;;;6.95;;
30062;SDS011;16889;67.864;24.990;2022-09-28T06:52:10;13.35;;;6.30;;
30062;SDS011;16889;67.864;24.990;2022-09-28T06:56:56;11.93;;;5.60;;
30062;SDS011;16889;67.864;24.990;2022-09-28T07:01:42;10.60;;;5.70;;
30062;SDS011;16889;67.864;24.990;2022-09-28T07:06:28;9.45;;;5.15;;
30062;SDS011;16889;67.864;24.990;2022-09-28T07:11:15;9.60;;;5.22;;
30062;SDS011;16889;67.864;24.990;2022-09-28T07:16:01;8.40;;;4.80;;
30062;SDS011;16889;67.864;24.990;2022-09-28T07:20:47;9.68;;;4.95;;
30062;SDS011;16889;67.864;24.990;2022-09-28T07:25:34;8.50;;;4.53;;
30062;SDS011;16889;67.864;24.990;2022-09-28T07:30:21;9.68;;;4.93;;
30062;SDS011;16889;67.864;24.990;2022-09-28T07:35:07;10.60;;;5.43;;
30062;SDS011;16889;67.864;24.990;2022-09-28T07:39:54;8.63;;;4.72;;
30062;SDS011;16889;67.864;24.990;2022-09-28T07:44:58;10.27;;;4.57;;
30062;SDS011;16889;67.864;24.990;2022-09-28T07:49:44;10.00;;;4.43;;
30062;SDS011;16889;67.864;24.990;2022-09-28T07:54:30;8.07;;;4.57;;
30062;SDS011;16889;67.864;24.990;2022-09-28T07:59:16;11.27;;;5.07;;
30062;SDS011;16889;67.864;24.990;2022-09-28T08:04:02;9.23;;;4.70;;
30062;SDS011;16889;67.864;24.990;2022-09-28T08:08:48;13.25;;;5.47;;
30062;SDS011;16889;67.864;24.990;2022-09-28T08:13:36;11.38;;;4.60;;
30062;SDS011;16889;67.864;24.990;2022-09-28T08:18:23;8.15;;;4.75;;
30062;SDS011;16889;67.864;24.990;2022-09-28T08:23:08;11.93;;;4.90;;
30062;SDS011;16889;67.864;24.990;2022-09-28T08:27:55;16.75;;;5.35;;
30062;SDS011;16889;67.864;24.990;2022-09-28T08:32:45;8.70;;;4.88;;
30062;SDS011;16889;67.864;24.990;2022-09-28T08:37:33;9.05;;;4.88;;
30062;SDS011;16889;67.864;24.990;2022-09-28T08:42:35;8.35;;;4.45;;
30062;SDS011;16889;67.864;24.990;2022-09-28T08:47:27;10.93;;;5.63;;
30062;SDS011;16889;67.864;24.990;2022-09-28T08:52:56;12.75;;;5.13;;
30062;SDS011;16889;67.864;24.990;2022-09-28T08:57:51;9.73;;;5.07;;
30062;SDS011;16889;67.864;24.990;2022-09-28T09:02:46;11.25;;;5.47;;
30062;SDS011;16889;67.864;24.990;2022-09-28T09:22:38;9.85;;;4.80;;
30062;SDS011;16889;67.864;24.990;2022-09-28T09:27:47;10.27;;;5.13;;
30062;SDS011;16889;67.864;24.990;2022-09-28T09:37:58;6.63;;;4.28;;
30062;SDS011;16889;67.864;24.990;2022-09-28T09:47:55;8.07;;;4.07;;
30062;SDS011;16889;67.864;24.990;2022-09-28T09:52:49;5.93;;;3.80;;
30062;SDS011;16889;67.864;24.990;2022-09-28T10:02:30;6.90;;;3.75;;
30062;SDS011;16889;67.864;24.990;2022-09-28T10:07:27;6.93;;;3.38;;
30062;SDS011;16889;67.864;24.990;2022-09-28T10:12:32;4.82;;;2.70;;
30062;SDS011;16889;67.864;24.990;2022-09-28T10:17:18;4.90;;;2.80;;
30062;SDS011;16889;67.864;24.990;2022-09-28T10:22:14;5.85;;;2.75;;
30062;SDS011;16889;67.864;24.990;2022-09-28T10:27:05;5.85;;;2.88;;
30062;SDS011;16889;67.864;24.990;2022-09-28T10:32:00;4.43;;;2.80;;
30062;SDS011;16889;67.864;24.990;2022-09-28T10:41:50;7.05;;;2.63;;
30062;SDS011;16889;67.864;24.990;2022-09-28T10:46:37;3.50;;;2.77;;
30062;SDS011;16889;67.864;24.990;2022-09-28T10:56:29;4.25;;;2.70;;
30062;SDS011;16889;67.864;24.990;2022-09-28T11:01:22;6.43;;;2.60;;
30062;SDS011;16889;67.864;24.990;2022-09-28T11:06:15;3.55;;;2.70;;
30062;SDS011;16889;67.864;24.990;2022-09-28T11:11:20;4.95;;;2.40;;
30062;SDS011;16889;67.864;24.990;2022-09-28T11:16:17;5.30;;;2.63;;
30062;SDS011;16889;67.864;24.990;2022-09-28T11:21:08;3.92;;;2.40;;
30062;SDS011;16889;67.864;24.990;2022-09-28T11:26:06;3.40;;;2.15;;
30062;SDS011;16889;67.864;24.990;2022-09-28T11:30:53;5.22;;;2.55;;
30062;SDS011;16889;67.864;24.990;2022-09-28T11:35:48;7.78;;;2.60;;
30062;SDS011;16889;67.864;24.990;2022-09-28T11:45:57;3.17;;;2.00;;
30062;SDS011;16889;67.864;24.990;2022-09-28T11:55:46;5.85;;;2.67;;
30062;SDS011;16889;67.864;24.990;2022-09-28T12:00:44;8.95;;;2.42;;
30062;SDS011;16889;67.864;24.990;2022-09-28T12:05:39;12.70;;;3.33;;
30062;SDS011;16889;67.864;24.990;2022-09-28T12:26:24;5.32;;;1.95;;
30062;SDS011;16889;67.864;24.990;2022-09-28T12:31:39;7.03;;;2.65;;
30062;SDS011;16889;67.864;24.990;2022-09-28T12:46:38;3.30;;;1.90;;
30062;SDS011;16889;67.864;24.990;2022-09-28T12:51:48;5.30;;;1.88;;
30062;SDS011;16889;67.864;24.990;2022-09-28T12:57:48;4.20;;;2.00;;
30062;SDS011;16889;67.864;24.990;2022-09-28T13:17:23;5.10;;;2.67;;
30062;SDS011;16889;67.864;24.990;2022-09-28T13:22:28;5.15;;;2.05;;
30062;SDS011;16889;67.864;24.990;2022-09-28T13:27:30;8.13;;;2.30;;
30062;SDS011;16889;67.864;24.990;2022-09-28T13:32:24;6.00;;;2.75;;
30062;SDS011;16889;67.864;24.990;2022-09-28T13:42:09;2.88;;;1.92;;
30062;SDS011;16889;67.864;24.990;2022-09-28T13:47:09;3.00;;;1.90;;
30062;SDS011;16889;67.864;24.990;2022-09-28T13:52:18;5.43;;;2.15;;
30062;SDS011;16889;67.864;24.990;2022-09-28T14:07:56;3.63;;;2.33;;
30062;SDS011;16889;67.864;24.990;2022-09-28T14:12:28;9.93;;;2.47;;
30062;SDS011;16889;67.864;24.990;2022-09-28T14:22:24;7.40;;;2.42;;
30062;SDS011;16889;67.864;24.990;2022-09-28T14:28:00;4.93;;;2.00;;
30062;SDS011;16889;67.864;24.990;2022-09-28T14:33:15;5.43;;;2.58;;
30062;SDS011;16889;67.864;24.990;2022-09-28T14:38:14;3.67;;;2.20;;
30062;SDS011;16889;67.864;24.990;2022-09-28T14:49:41;4.15;;;1.98;;
30062;SDS011;16889;67.864;24.990;2022-09-28T14:53:41;5.53;;;2.17;;
30062;SDS011;16889;67.864;24.990;2022-09-28T14:58:27;3.55;;;1.92;;
30062;SDS011;16889;67.864;24.990;2022-09-28T15:03:13;4.10;;;2.15;;
30062;SDS011;16889;67.864;24.990;2022-09-28T15:08:01;5.83;;;2.70;;
30062;SDS011;16889;67.864;24.990;2022-09-28T15:12:47;5.63;;;2.30;;
30062;SDS011;16889;67.864;24.990;2022-09-28T15:17:35;6.93;;;2.23;;
30062;SDS011;16889;67.864;24.990;2022-09-28T15:22:23;5.78;;;2.40;;
30062;SDS011;16889;67.864;24.990;2022-09-28T15:27:18;6.18;;;2.40;;
30062;SDS011;16889;67.864;24.990;2022-09-28T15:32:04;3.58;;;2.30;;
30062;SDS011;16889;67.864;24.990;2022-09-28T15:36:50;4.80;;;2.63;;
30062;SDS011;16889;67.864;24.990;2022-09-28T15:41:41;3.35;;;2.30;;
30062;SDS011;16889;67.864;24.990;2022-09-28T15:46:38;3.58;;;2.58;;
30062;SDS011;16889;67.864;24.990;2022-09-28T15:51:28;5.22;;;2.33;;
30062;SDS011;16889;67.864;24.990;2022-09-28T16:01:19;5.72;;;2.58;;
30062;SDS011;16889;67.864;24.990;2022-09-28T16:06:20;5.13;;;2.70;;
30062;SDS011;16889;67.864;24.990;2022-09-28T16:16:02;5.82;;;2.83;;
30062;SDS011;16889;67.864;24.990;2022-09-28T16:20:51;4.40;;;2.50;;
30062;SDS011;16889;67.864;24.990;2022-09-28T16:26:05;4.43;;;2.70;;
30062;SDS011;16889;67.864;24.990;2022-09-28T16:35:48;11.57;;;3.10;;
30062;SDS011;16889;67.864;24.990;2022-09-28T16:40:39;8.60;;;3.33;;
30062;SDS011;16889;67.864;24.990;2022-09-28T16:45:26;4.57;;;2.80;;
30062;SDS011;16889;67.864;24.990;2022-09-28T16:50:13;6.15;;;3.85;;
30062;SDS011;16889;67.864;24.990;2022-09-28T16:54:59;7.53;;;3.10;;
30062;SDS011;16889;67.864;24.990;2022-09-28T17:00:04;11.35;;;3.53;;
30062;SDS011;16889;67.864;24.990;2022-09-28T17:04:59;4.95;;;3.40;;
30062;SDS011;16889;67.864;24.990;2022-09-28T17:09:45;6.25;;;3.33;;
30062;SDS011;16889;67.864;24.990;2022-09-28T17:14:31;7.15;;;3.38;;
30062;SDS011;16889;67.864;24.990;2022-09-28T17:19:18;8.05;;;3.53;;
30062;SDS011;16889;67.864;24.990;2022-09-28T17:24:06;4.70;;;3.03;;
30062;SDS011;16889;67.864;24.990;2022-09-28T17:28:52;7.55;;;3.60;;
30062;SDS011;16889;67.864;24.990;2022-09-28T17:33:38;5.28;;;3.05;;
30062;SDS011;16889;67.864;24.990;2022-09-28T17:38:24;5.65;;;3.40;;
30062;SDS011;16889;67.864;24.990;2022-09-28T17:43:10;9.05;;;3.28;;
30062;SDS011;16889;67.864;24.990;2022-09-28T17:48:04;6.03;;;3.70;;
30062;SDS011;16889;67.864;24.990;2022-09-28T17:52:59;8.13;;;3.90;;
30062;SDS011;16889;67.864;24.990;2022-09-28T17:57:50;8.07;;;3.80;;
30062;SDS011;16889;67.864;24.990;2022-09-28T18:02:36;8.60;;;3.60;;
30062;SDS011;16889;67.864;24.990;2022-09-28T18:07:43;8.68;;;3.90;;
30062;SDS011;16889;67.864;24.990;2022-09-28T18:12:31;8.77;;;4.00;;
30062;SDS011;16889;67.864;24.990;2022-09-28T18:17:17;7.25;;;4.00;;
30062;SDS011;16889;67.864;24.990;2022-09-28T18:22:03;7.22;;;4.05;;
30062;SDS011;16889;67.864;24.990;2022-09-28T18:26:49;5.95;;;3.67;;
30062;SDS011;16889;67.864;24.990;2022-09-28T18:31:35;6.88;;;4.28;;
30062;SDS011;16889;67.864;24.990;2022-09-28T18:36:26;7.90;;;4.18;;
30062;SDS011;16889;67.864;24.990;2022-09-28T18:41:16;8.10;;;4.38;;
30062;SDS011;16889;67.864;24.990;2022-09-28T18:46:05;6.30;;;3.67;;
30062;SDS011;16889;67.864;24.990;2022-09-28T18:50:53;5.43;;;3.85;;
30062;SDS011;16889;67.864;24.990;2022-09-28T18:55:39;6.07;;;3.95;;
30062;SDS011;16889;67.864;24.990;2022-09-28T19:05:12;8.07;;;4.00;;
30062;SDS011;16889;67.864;24.990;2022-09-28T19:09:58;10.80;;;3.53;;
30062;SDS011;16889;67.864;24.990;2022-09-28T19:14:44;5.63;;;3.67;;
30062;SDS011;16889;67.864;24.990;2022-09-28T19:19:30;6.35;;;3.33;;
30062;SDS011;16889;67.864;24.990;2022-09-28T19:24:17;7.55;;;3.35;;
30062;SDS011;16889;67.864;24.990;2022-09-28T19:29:03;6.47;;;3.58;;
30062;SDS011;16889;67.864;24.990;2022-09-28T19:33:50;6.18;;;3.25;;
30062;SDS011;16889;67.864;24.990;2022-09-28T19:38:36;6.57;;;3.72;;
30062;SDS011;16889;67.864;24.990;2022-09-28T19:43:23;6.30;;;3.73;;
30062;SDS011;16889;67.864;24.990;2022-09-28T19:48:09;6.78;;;3.28;;
30062;SDS011;16889;67.864;24.990;2022-09-28T19:52:55;6.78;;;3.50;;
30062;SDS011;16889;67.864;24.990;2022-09-28T19:57:45;6.25;;;3.55;;
30062;SDS011;16889;67.864;24.990;2022-09-28T20:02:32;8.32;;;3.30;;
30062;SDS011;16889;67.864;24.990;2022-09-28T20:07:19;6.03;;;3.70;;
30062;SDS011;16889;67.864;24.990;2022-09-28T20:12:05;5.35;;;3.42;;
30062;SDS011;16889;67.864;24.990;2022-09-28T20:16:51;5.47;;;3.67;;
30062;SDS011;16889;67.864;24.990;2022-09-28T20:21:37;5.65;;;3.67;;
30062;SDS011;16889;67.864;24.990;2022-09-28T20:26:23;8.63;;;4.03;;
30062;SDS011;16889;67.864;24.990;2022-09-28T20:31:11;6.50;;;4.22;;
30062;SDS011;16889;67.864;24.990;2022-09-28T20:36:06;10.30;;;3.88;;
30062;SDS011;16889;67.864;24.990;2022-09-28T20:40:57;5.47;;;3.80;;
30062;SDS011;16889;67.864;24.990;2022-09-28T20:45:45;8.05;;;3.75;;
30062;SDS011;16889;67.864;24.990;2022-09-28T20:50:31;6.95;;;3.95;;
30062;SDS011;16889;67.864;24.990;2022-09-28T20:55:18;3.17;;;2.58;;
30062;SDS011;16889;67.864;24.990;2022-09-28T21:00:04;8.05;;;4.00;;
30062;SDS011;16889;67.864;24.990;2022-09-28T21:04:50;10.55;;;4.00;;
30062;SDS011;16889;67.864;24.990;2022-09-28T21:09:36;6.97;;;4.03;;
30062;SDS011;16889;67.864;24.990;2022-09-28T21:14:22;7.25;;;3.83;;
30062;SDS011;16889;67.864;24.990;2022-09-28T21:19:08;7.78;;;4.00;;
30062;SDS011;16889;67.864;24.990;2022-09-28T21:23:54;8.05;;;3.70;;
30062;SDS011;16889;67.864;24.990;2022-09-28T21:28:41;5.82;;;3.92;;
30062;SDS011;16889;67.864;24.990;2022-09-28T21:33:28;8.23;;;3.67;;
30062;SDS011;16889;67.864;24.990;2022-09-28T21:38:14;6.93;;;3.38;;
30062;SDS011;16889;67.864;24.990;2022-09-28T21:43:00;6.43;;;3.78;;
30062;SDS011;16889;67.864;24.990;2022-09-28T21:47:46;6.35;;;3.80;;
30062;SDS011;16889;67.864;24.990;2022-09-28T21:52:37;5.00;;;3.60;;
30062;SDS011;16889;67.864;24.990;2022-09-28T21:57:23;13.02;;;3.85;;
30062;SDS011;16889;67.864;24.990;2022-09-28T22:02:09;7.43;;;3.97;;
30062;SDS011;16889;67.864;24.990;2022-09-28T22:06:55;12.30;;;3.95;;
30062;SDS011;16889;67.864;24.990;2022-09-28T22:11:40;6.25;;;4.18;;
30062;SDS011;16889;67.864;24.990;2022-09-28T22:16:28;7.32;;;4.05;;
30062;SDS011;16889;67.864;24.990;2022-09-28T22:31:04;5.82;;;4.00;;
30062;SDS011;16889;67.864;24.990;2022-09-28T22:35:50;6.03;;;4.03;;
30062;SDS011;16889;67.864;24.990;2022-09-28T22:40:40;6.72;;;4.32;;
30062;SDS011;16889;67.864;24.990;2022-09-28T22:45:31;6.95;;;4.22;;
30062;SDS011;16889;67.864;24.990;2022-09-28T22:50:17;7.15;;;3.92;;
30062;SDS011;16889;67.864;24.990;2022-09-28T22:55:03;9.52;;;4.40;;
30062;SDS011;16889;67.864;24.990;2022-09-28T22:59:49;5.88;;;4.20;;
30062;SDS011;16889;67.864;24.990;2022-09-28T23:04:35;7.75;;;4.38;;
30062;SDS011;16889;67.864;24.990;2022-09-28T23:09:21;10.68;;;4.90;;
30062;SDS011;16889;67.864;24.990;2022-09-28T23:14:08;9.48;;;4.40;;
30062;SDS011;16889;67.864;24.990;2022-09-28T23:18:56;11.38;;;5.05;;
30062;SDS011;16889;67.864;24.990;2022-09-28T23:23:43;11.48;;;4.28;;
30062;SDS011;16889;67.864;24.990;2022-09-28T23:28:29;7.38;;;5.00;;
30062;SDS011;16889;67.864;24.990;2022-09-28T23:33:16;15.90;;;4.53;;
30062;SDS011;16889;67.864;24.990;2022-09-28T23:42:50;10.00;;;4.82;;
30062;SDS011;16889;67.864;24.990;2022-09-28T23:47:36;7.88;;;4.68;;
30062;SDS011;16889;67.864;24.990;2022-09-28T23:52:23;9.95;;;5.18;;
30062;SDS011;16889;67.864;24.990;2022-09-28T23:57:08;13.40;;;5.00;;
